sensor_id;sensor_type;location;lat;lon;timestamp;P1;durP1;ratioP1;P2;durP2;ratioP2
19213;SDS011;9741;51.020;5.304;2022-08-01T00:01:50;0.47;;;0.22;;
19213;SDS011;9741;51.020;5.304;2022-08-01T00:04:17;0.20;;;0.20;;
19213;SDS011;9741;51.020;5.304;2022-08-01T00:06:45;0.43;;;0.38;;
19213;SDS011;9741;51.020;5.304;2022-08-01T00:09:12;1.30;;;0.60;;
19213;SDS011;9741;51.020;5.304;2022-08-01T00:11:39;0.40;;;0.40;;
19213;SDS011;9741;51.020;5.304;2022-08-01T00:14:07;1.08;;;0.40;;
19213;SDS011;9741;51.020;5.304;2022-08-01T00:16:35;0.70;;;0.70;;
19213;SDS011;9741;51.020;5.304;2022-08-01T00:19:02;0.98;;;0.45;;
19213;SDS011;9741;51.020;5.304;2022-08-01T00:21:30;0.55;;;0.40;;
19213;SDS011;9741;51.020;5.304;2022-08-01T00:23:58;0.40;;;0.40;;
19213;SDS011;9741;51.020;5.304;2022-08-01T00:26:25;0.30;;;0.30;;
19213;SDS011;9741;51.020;5.304;2022-08-01T00:28:52;0.38;;;0.38;;
19213;SDS011;9741;51.020;5.304;2022-08-01T00:31:19;1.10;;;0.77;;
19213;SDS011;9741;51.020;5.304;2022-08-01T00:33:46;0.55;;;0.55;;
19213;SDS011;9741;51.020;5.304;2022-08-01T00:36:13;0.30;;;0.30;;
19213;SDS011;9741;51.020;5.304;2022-08-01T00:38:40;0.50;;;0.50;;
19213;SDS011;9741;51.020;5.304;2022-08-01T00:41:09;0.20;;;0.20;;
19213;SDS011;9741;51.020;5.304;2022-08-01T00:43:36;0.50;;;0.50;;
19213;SDS011;9741;51.020;5.304;2022-08-01T00:46:03;0.50;;;0.40;;
19213;SDS011;9741;51.020;5.304;2022-08-01T00:48:30;0.35;;;0.35;;
19213;SDS011;9741;51.020;5.304;2022-08-01T00:50:57;0.73;;;0.73;;
19213;SDS011;9741;51.020;5.304;2022-08-01T00:53:24;0.40;;;0.40;;
19213;SDS011;9741;51.020;5.304;2022-08-01T00:55:51;0.32;;;0.30;;
19213;SDS011;9741;51.020;5.304;2022-08-01T00:58:20;0.32;;;0.15;;
19213;SDS011;9741;51.020;5.304;2022-08-01T01:00:48;0.50;;;0.43;;
19213;SDS011;9741;51.020;5.304;2022-08-01T01:03:15;0.85;;;0.50;;
19213;SDS011;9741;51.020;5.304;2022-08-01T01:05:45;0.35;;;0.25;;
19213;SDS011;9741;51.020;5.304;2022-08-01T01:08:22;0.47;;;0.40;;
19213;SDS011;9741;51.020;5.304;2022-08-01T01:10:57;0.40;;;0.40;;
19213;SDS011;9741;51.020;5.304;2022-08-01T01:13:33;0.68;;;0.40;;
19213;SDS011;9741;51.020;5.304;2022-08-01T01:16:05;0.43;;;0.40;;
19213;SDS011;9741;51.020;5.304;2022-08-01T01:18:37;0.40;;;0.40;;
19213;SDS011;9741;51.020;5.304;2022-08-01T01:21:13;0.65;;;0.40;;
19213;SDS011;9741;51.020;5.304;2022-08-01T01:24:09;1.27;;;0.75;;
19213;SDS011;9741;51.020;5.304;2022-08-01T01:26:45;0.20;;;0.20;;
19213;SDS011;9741;51.020;5.304;2022-08-01T01:29:20;0.20;;;0.20;;
19213;SDS011;9741;51.020;5.304;2022-08-01T01:32:01;1.15;;;0.70;;
19213;SDS011;9741;51.020;5.304;2022-08-01T01:34:32;3.22;;;0.52;;
19213;SDS011;9741;51.020;5.304;2022-08-01T01:37:02;0.47;;;0.40;;
19213;SDS011;9741;51.020;5.304;2022-08-01T01:39:33;0.40;;;0.40;;
19213;SDS011;9741;51.020;5.304;2022-08-01T01:42:03;0.38;;;0.30;;
19213;SDS011;9741;51.020;5.304;2022-08-01T01:44:34;0.32;;;0.32;;
19213;SDS011;9741;51.020;5.304;2022-08-01T01:47:02;0.63;;;0.50;;
19213;SDS011;9741;51.020;5.304;2022-08-01T01:49:30;0.55;;;0.50;;
19213;SDS011;9741;51.020;5.304;2022-08-01T01:51:59;0.47;;;0.45;;
19213;SDS011;9741;51.020;5.304;2022-08-01T01:54:28;0.30;;;0.30;;
19213;SDS011;9741;51.020;5.304;2022-08-01T01:57:04;1.95;;;0.82;;
19213;SDS011;9741;51.020;5.304;2022-08-01T01:59:34;1.50;;;0.38;;
19213;SDS011;9741;51.020;5.304;2022-08-01T02:02:04;1.25;;;0.40;;
19213;SDS011;9741;51.020;5.304;2022-08-01T02:04:34;0.63;;;0.63;;
19213;SDS011;9741;51.020;5.304;2022-08-01T02:07:04;0.73;;;0.68;;
19213;SDS011;9741;51.020;5.304;2022-08-01T02:09:33;0.75;;;0.47;;
19213;SDS011;9741;51.020;5.304;2022-08-01T02:12:03;0.60;;;0.60;;
19213;SDS011;9741;51.020;5.304;2022-08-01T02:14:33;1.73;;;0.40;;
19213;SDS011;9741;51.020;5.304;2022-08-01T02:17:01;0.80;;;0.47;;
19213;SDS011;9741;51.020;5.304;2022-08-01T02:19:29;1.42;;;0.52;;
19213;SDS011;9741;51.020;5.304;2022-08-01T02:21:57;0.68;;;0.60;;
19213;SDS011;9741;51.020;5.304;2022-08-01T02:24:29;0.77;;;0.57;;
19213;SDS011;9741;51.020;5.304;2022-08-01T02:27:03;0.30;;;0.30;;
19213;SDS011;9741;51.020;5.304;2022-08-01T02:29:38;0.45;;;0.40;;
19213;SDS011;9741;51.020;5.304;2022-08-01T02:32:10;0.47;;;0.47;;
19213;SDS011;9741;51.020;5.304;2022-08-01T02:34:41;0.40;;;0.40;;
19213;SDS011;9741;51.020;5.304;2022-08-01T02:37:10;0.40;;;0.40;;
19213;SDS011;9741;51.020;5.304;2022-08-01T02:39:37;0.50;;;0.50;;
19213;SDS011;9741;51.020;5.304;2022-08-01T02:42:06;0.45;;;0.40;;
19213;SDS011;9741;51.020;5.304;2022-08-01T02:44:38;0.90;;;0.70;;
19213;SDS011;9741;51.020;5.304;2022-08-01T02:47:08;0.95;;;0.82;;
19213;SDS011;9741;51.020;5.304;2022-08-01T02:49:37;0.98;;;0.70;;
19213;SDS011;9741;51.020;5.304;2022-08-01T02:52:10;1.10;;;0.88;;
19213;SDS011;9741;51.020;5.304;2022-08-01T02:54:40;0.60;;;0.50;;
19213;SDS011;9741;51.020;5.304;2022-08-01T02:57:09;1.23;;;0.93;;
19213;SDS011;9741;51.020;5.304;2022-08-01T02:59:39;2.03;;;0.88;;
19213;SDS011;9741;51.020;5.304;2022-08-01T03:02:08;0.50;;;0.50;;
19213;SDS011;9741;51.020;5.304;2022-08-01T03:04:37;1.42;;;1.08;;
19213;SDS011;9741;51.020;5.304;2022-08-01T03:07:07;0.95;;;0.75;;
19213;SDS011;9741;51.020;5.304;2022-08-01T03:09:37;0.98;;;0.82;;
19213;SDS011;9741;51.020;5.304;2022-08-01T03:12:09;0.57;;;0.40;;
19213;SDS011;9741;51.020;5.304;2022-08-01T03:14:41;0.70;;;0.55;;
19213;SDS011;9741;51.020;5.304;2022-08-01T03:17:09;0.80;;;0.80;;
19213;SDS011;9741;51.020;5.304;2022-08-01T03:19:37;1.65;;;1.00;;
19213;SDS011;9741;51.020;5.304;2022-08-01T03:22:05;0.52;;;0.52;;
19213;SDS011;9741;51.020;5.304;2022-08-01T03:24:34;1.08;;;0.77;;
19213;SDS011;9741;51.020;5.304;2022-08-01T03:27:03;2.15;;;1.15;;
19213;SDS011;9741;51.020;5.304;2022-08-01T03:29:32;1.02;;;0.93;;
19213;SDS011;9741;51.020;5.304;2022-08-01T03:32:02;0.73;;;0.60;;
19213;SDS011;9741;51.020;5.304;2022-08-01T03:34:30;1.20;;;1.08;;
19213;SDS011;9741;51.020;5.304;2022-08-01T03:36:59;1.30;;;1.20;;
19213;SDS011;9741;51.020;5.304;2022-08-01T03:39:34;2.78;;;1.60;;
19213;SDS011;9741;51.020;5.304;2022-08-01T03:42:07;1.50;;;1.13;;
19213;SDS011;9741;51.020;5.304;2022-08-01T03:44:39;1.55;;;1.35;;
19213;SDS011;9741;51.020;5.304;2022-08-01T03:47:08;0.93;;;0.85;;
19213;SDS011;9741;51.020;5.304;2022-08-01T03:49:38;1.45;;;1.00;;
19213;SDS011;9741;51.020;5.304;2022-08-01T03:52:09;1.45;;;1.17;;
19213;SDS011;9741;51.020;5.304;2022-08-01T03:54:38;1.90;;;1.20;;
19213;SDS011;9741;51.020;5.304;2022-08-01T03:57:08;1.75;;;1.33;;
19213;SDS011;9741;51.020;5.304;2022-08-01T03:59:36;2.50;;;1.38;;
19213;SDS011;9741;51.020;5.304;2022-08-01T04:02:04;1.88;;;1.55;;
19213;SDS011;9741;51.020;5.304;2022-08-01T04:04:33;1.00;;;0.90;;
19213;SDS011;9741;51.020;5.304;2022-08-01T04:07:01;1.92;;;1.23;;
19213;SDS011;9741;51.020;5.304;2022-08-01T04:09:32;2.70;;;1.05;;
19213;SDS011;9741;51.020;5.304;2022-08-01T04:11:59;4.05;;;1.95;;
19213;SDS011;9741;51.020;5.304;2022-08-01T04:14:28;5.45;;;2.40;;
19213;SDS011;9741;51.020;5.304;2022-08-01T04:16:55;1.75;;;1.25;;
19213;SDS011;9741;51.020;5.304;2022-08-01T04:19:22;2.53;;;1.38;;
19213;SDS011;9741;51.020;5.304;2022-08-01T04:21:52;2.97;;;1.80;;
19213;SDS011;9741;51.020;5.304;2022-08-01T04:24:19;2.17;;;1.83;;
19213;SDS011;9741;51.020;5.304;2022-08-01T04:26:48;1.50;;;1.40;;
19213;SDS011;9741;51.020;5.304;2022-08-01T04:29:17;1.60;;;1.35;;
19213;SDS011;9741;51.020;5.304;2022-08-01T04:31:47;0.95;;;0.90;;
19213;SDS011;9741;51.020;5.304;2022-08-01T04:34:16;3.78;;;1.73;;
19213;SDS011;9741;51.020;5.304;2022-08-01T04:36:47;4.00;;;1.50;;
19213;SDS011;9741;51.020;5.304;2022-08-01T04:39:17;2.10;;;1.50;;
19213;SDS011;9741;51.020;5.304;2022-08-01T04:41:46;3.75;;;1.67;;
19213;SDS011;9741;51.020;5.304;2022-08-01T04:44:15;1.15;;;1.02;;
19213;SDS011;9741;51.020;5.304;2022-08-01T04:46:42;3.28;;;1.63;;
19213;SDS011;9741;51.020;5.304;2022-08-01T04:49:10;5.55;;;1.42;;
19213;SDS011;9741;51.020;5.304;2022-08-01T04:51:49;4.03;;;2.08;;
19213;SDS011;9741;51.020;5.304;2022-08-01T04:54:18;1.58;;;1.33;;
19213;SDS011;9741;51.020;5.304;2022-08-01T04:56:46;3.20;;;1.80;;
19213;SDS011;9741;51.020;5.304;2022-08-01T04:59:13;4.47;;;1.95;;
19213;SDS011;9741;51.020;5.304;2022-08-01T05:01:57;2.03;;;1.27;;
19213;SDS011;9741;51.020;5.304;2022-08-01T05:04:24;1.55;;;1.27;;
19213;SDS011;9741;51.020;5.304;2022-08-01T05:06:51;2.45;;;1.58;;
19213;SDS011;9741;51.020;5.304;2022-08-01T05:09:20;0.98;;;0.98;;
19213;SDS011;9741;51.020;5.304;2022-08-01T05:11:47;8.18;;;2.45;;
19213;SDS011;9741;51.020;5.304;2022-08-01T05:14:14;2.30;;;2.03;;
19213;SDS011;9741;51.020;5.304;2022-08-01T05:16:41;4.00;;;2.33;;
19213;SDS011;9741;51.020;5.304;2022-08-01T05:19:08;2.60;;;2.13;;
19213;SDS011;9741;51.020;5.304;2022-08-01T05:21:35;2.10;;;1.42;;
19213;SDS011;9741;51.020;5.304;2022-08-01T05:24:03;1.92;;;1.65;;
19213;SDS011;9741;51.020;5.304;2022-08-01T05:26:32;3.42;;;1.92;;
19213;SDS011;9741;51.020;5.304;2022-08-01T05:28:59;5.22;;;2.05;;
19213;SDS011;9741;51.020;5.304;2022-08-01T05:31:26;3.10;;;2.20;;
19213;SDS011;9741;51.020;5.304;2022-08-01T05:33:53;2.03;;;1.55;;
19213;SDS011;9741;51.020;5.304;2022-08-01T05:36:21;3.75;;;2.10;;
19213;SDS011;9741;51.020;5.304;2022-08-01T05:38:48;3.10;;;2.38;;
19213;SDS011;9741;51.020;5.304;2022-08-01T05:41:15;6.68;;;1.98;;
19213;SDS011;9741;51.020;5.304;2022-08-01T05:43:43;9.38;;;2.45;;
19213;SDS011;9741;51.020;5.304;2022-08-01T05:46:10;1.00;;;0.90;;
19213;SDS011;9741;51.020;5.304;2022-08-01T05:48:37;1.63;;;1.52;;
19213;SDS011;9741;51.020;5.304;2022-08-01T05:51:04;3.75;;;2.53;;
19213;SDS011;9741;51.020;5.304;2022-08-01T05:53:32;2.60;;;1.52;;
19213;SDS011;9741;51.020;5.304;2022-08-01T05:55:59;6.97;;;1.58;;
19213;SDS011;9741;51.020;5.304;2022-08-01T05:58:27;3.40;;;1.60;;
19213;SDS011;9741;51.020;5.304;2022-08-01T06:00:55;2.22;;;1.50;;
19213;SDS011;9741;51.020;5.304;2022-08-01T06:03:23;2.75;;;1.45;;
19213;SDS011;9741;51.020;5.304;2022-08-01T06:05:50;3.17;;;1.55;;
19213;SDS011;9741;51.020;5.304;2022-08-01T06:08:18;2.05;;;1.02;;
19213;SDS011;9741;51.020;5.304;2022-08-01T06:10:45;3.47;;;1.88;;
19213;SDS011;9741;51.020;5.304;2022-08-01T06:13:12;3.67;;;2.17;;
19213;SDS011;9741;51.020;5.304;2022-08-01T06:15:39;2.10;;;1.45;;
19213;SDS011;9741;51.020;5.304;2022-08-01T06:18:08;1.20;;;1.00;;
19213;SDS011;9741;51.020;5.304;2022-08-01T06:20:35;1.70;;;1.58;;
19213;SDS011;9741;51.020;5.304;2022-08-01T06:23:02;1.58;;;1.45;;
19213;SDS011;9741;51.020;5.304;2022-08-01T06:25:30;2.65;;;1.52;;
19213;SDS011;9741;51.020;5.304;2022-08-01T06:27:58;1.17;;;1.08;;
19213;SDS011;9741;51.020;5.304;2022-08-01T06:30:26;2.15;;;1.35;;
19213;SDS011;9741;51.020;5.304;2022-08-01T06:32:53;1.65;;;1.33;;
19213;SDS011;9741;51.020;5.304;2022-08-01T06:35:22;2.97;;;1.38;;
19213;SDS011;9741;51.020;5.304;2022-08-01T06:37:49;0.70;;;0.70;;
19213;SDS011;9741;51.020;5.304;2022-08-01T06:40:16;0.85;;;0.77;;
19213;SDS011;9741;51.020;5.304;2022-08-01T06:42:44;1.50;;;0.93;;
19213;SDS011;9741;51.020;5.304;2022-08-01T06:45:12;2.05;;;0.88;;
19213;SDS011;9741;51.020;5.304;2022-08-01T06:47:41;0.95;;;0.77;;
19213;SDS011;9741;51.020;5.304;2022-08-01T06:50:10;2.63;;;1.50;;
19213;SDS011;9741;51.020;5.304;2022-08-01T06:52:40;1.80;;;1.27;;
19213;SDS011;9741;51.020;5.304;2022-08-01T06:55:08;1.00;;;0.90;;
19213;SDS011;9741;51.020;5.304;2022-08-01T06:57:36;1.55;;;1.25;;
19213;SDS011;9741;51.020;5.304;2022-08-01T07:00:11;1.17;;;1.08;;
19213;SDS011;9741;51.020;5.304;2022-08-01T07:02:42;1.48;;;1.17;;
19213;SDS011;9741;51.020;5.304;2022-08-01T07:05:09;1.48;;;0.55;;
19213;SDS011;9741;51.020;5.304;2022-08-01T07:07:36;1.00;;;0.90;;
19213;SDS011;9741;51.020;5.304;2022-08-01T07:10:05;1.45;;;0.90;;
19213;SDS011;9741;51.020;5.304;2022-08-01T07:12:34;1.52;;;1.02;;
19213;SDS011;9741;51.020;5.304;2022-08-01T07:15:03;1.45;;;0.82;;
19213;SDS011;9741;51.020;5.304;2022-08-01T07:17:31;0.98;;;0.70;;
19213;SDS011;9741;51.020;5.304;2022-08-01T07:19:59;1.40;;;0.70;;
19213;SDS011;9741;51.020;5.304;2022-08-01T07:22:27;0.82;;;0.70;;
19213;SDS011;9741;51.020;5.304;2022-08-01T07:24:54;1.70;;;1.08;;
19213;SDS011;9741;51.020;5.304;2022-08-01T07:27:23;1.38;;;1.00;;
19213;SDS011;9741;51.020;5.304;2022-08-01T07:29:50;0.70;;;0.65;;
19213;SDS011;9741;51.020;5.304;2022-08-01T07:32:18;0.60;;;0.60;;
19213;SDS011;9741;51.020;5.304;2022-08-01T07:34:46;0.77;;;0.60;;
19213;SDS011;9741;51.020;5.304;2022-08-01T07:37:13;0.68;;;0.63;;
19213;SDS011;9741;51.020;5.304;2022-08-01T07:39:41;2.25;;;1.05;;
19213;SDS011;9741;51.020;5.304;2022-08-01T07:42:09;0.60;;;0.60;;
19213;SDS011;9741;51.020;5.304;2022-08-01T07:44:39;0.63;;;0.63;;
19213;SDS011;9741;51.020;5.304;2022-08-01T07:47:06;1.10;;;0.60;;
19213;SDS011;9741;51.020;5.304;2022-08-01T07:49:35;1.08;;;0.82;;
19213;SDS011;9741;51.020;5.304;2022-08-01T07:52:05;1.45;;;0.93;;
19213;SDS011;9741;51.020;5.304;2022-08-01T07:54:32;3.10;;;0.95;;
19213;SDS011;9741;51.020;5.304;2022-08-01T07:57:00;1.02;;;0.85;;
19213;SDS011;9741;51.020;5.304;2022-08-01T07:59:28;1.20;;;0.70;;
19213;SDS011;9741;51.020;5.304;2022-08-01T08:01:56;0.80;;;0.80;;
19213;SDS011;9741;51.020;5.304;2022-08-01T08:04:24;0.82;;;0.82;;
19213;SDS011;9741;51.020;5.304;2022-08-01T08:06:52;0.75;;;0.75;;
19213;SDS011;9741;51.020;5.304;2022-08-01T08:09:20;1.05;;;0.90;;
19213;SDS011;9741;51.020;5.304;2022-08-01T08:11:48;1.30;;;1.08;;
19213;SDS011;9741;51.020;5.304;2022-08-01T08:14:15;1.38;;;0.95;;
19213;SDS011;9741;51.020;5.304;2022-08-01T08:16:43;1.88;;;1.00;;
19213;SDS011;9741;51.020;5.304;2022-08-01T08:19:12;2.65;;;0.70;;
19213;SDS011;9741;51.020;5.304;2022-08-01T08:21:39;1.10;;;0.82;;
19213;SDS011;9741;51.020;5.304;2022-08-01T08:24:07;1.08;;;0.90;;
19213;SDS011;9741;51.020;5.304;2022-08-01T08:26:48;0.80;;;0.80;;
19213;SDS011;9741;51.020;5.304;2022-08-01T08:29:18;1.25;;;1.15;;
19213;SDS011;9741;51.020;5.304;2022-08-01T08:31:45;1.30;;;1.02;;
19213;SDS011;9741;51.020;5.304;2022-08-01T08:34:13;2.75;;;1.10;;
19213;SDS011;9741;51.020;5.304;2022-08-01T08:36:41;1.17;;;1.08;;
19213;SDS011;9741;51.020;5.304;2022-08-01T08:39:08;1.27;;;1.08;;
19213;SDS011;9741;51.020;5.304;2022-08-01T08:41:36;1.10;;;1.00;;
19213;SDS011;9741;51.020;5.304;2022-08-01T08:44:03;0.65;;;0.60;;
19213;SDS011;9741;51.020;5.304;2022-08-01T08:46:32;1.55;;;1.00;;
19213;SDS011;9741;51.020;5.304;2022-08-01T08:49:01;1.08;;;0.95;;
19213;SDS011;9741;51.020;5.304;2022-08-01T08:51:33;1.17;;;1.08;;
19213;SDS011;9741;51.020;5.304;2022-08-01T08:54:04;1.25;;;1.15;;
19213;SDS011;9741;51.020;5.304;2022-08-01T08:56:34;1.20;;;0.93;;
19213;SDS011;9741;51.020;5.304;2022-08-01T08:59:04;1.00;;;0.82;;
19213;SDS011;9741;51.020;5.304;2022-08-01T09:01:32;1.08;;;0.73;;
19213;SDS011;9741;51.020;5.304;2022-08-01T09:04:00;1.90;;;1.10;;
19213;SDS011;9741;51.020;5.304;2022-08-01T09:06:28;4.07;;;2.70;;
19213;SDS011;9741;51.020;5.304;2022-08-01T09:08:58;5.63;;;2.83;;
19213;SDS011;9741;51.020;5.304;2022-08-01T09:11:26;1.70;;;1.30;;
19213;SDS011;9741;51.020;5.304;2022-08-01T09:14:09;1.42;;;1.20;;
19213;SDS011;9741;51.020;5.304;2022-08-01T09:16:40;1.20;;;1.10;;
19213;SDS011;9741;51.020;5.304;2022-08-01T09:19:11;1.38;;;1.05;;
19213;SDS011;9741;51.020;5.304;2022-08-01T09:21:40;1.10;;;1.00;;
19213;SDS011;9741;51.020;5.304;2022-08-01T09:24:24;2.25;;;1.33;;
19213;SDS011;9741;51.020;5.304;2022-08-01T09:26:53;3.70;;;0.80;;
19213;SDS011;9741;51.020;5.304;2022-08-01T09:29:21;0.80;;;0.80;;
19213;SDS011;9741;51.020;5.304;2022-08-01T09:31:51;4.93;;;1.40;;
19213;SDS011;9741;51.020;5.304;2022-08-01T09:34:23;0.77;;;0.77;;
19213;SDS011;9741;51.020;5.304;2022-08-01T09:36:52;0.50;;;0.50;;
19213;SDS011;9741;51.020;5.304;2022-08-01T09:39:22;1.13;;;0.90;;
19213;SDS011;9741;51.020;5.304;2022-08-01T09:41:52;0.70;;;0.68;;
19213;SDS011;9741;51.020;5.304;2022-08-01T09:44:25;1.05;;;0.88;;
19213;SDS011;9741;51.020;5.304;2022-08-01T09:47:04;1.17;;;0.95;;
19213;SDS011;9741;51.020;5.304;2022-08-01T09:49:33;0.47;;;0.40;;
19213;SDS011;9741;51.020;5.304;2022-08-01T09:52:12;2.47;;;0.90;;
19213;SDS011;9741;51.020;5.304;2022-08-01T09:54:41;1.08;;;0.90;;
19213;SDS011;9741;51.020;5.304;2022-08-01T09:57:11;1.25;;;0.95;;
19213;SDS011;9741;51.020;5.304;2022-08-01T09:59:40;0.93;;;0.77;;
19213;SDS011;9741;51.020;5.304;2022-08-01T10:02:09;1.17;;;0.82;;
19213;SDS011;9741;51.020;5.304;2022-08-01T10:04:45;1.08;;;0.98;;
19213;SDS011;9741;51.020;5.304;2022-08-01T10:07:15;0.75;;;0.75;;
19213;SDS011;9741;51.020;5.304;2022-08-01T10:09:42;0.45;;;0.45;;
19213;SDS011;9741;51.020;5.304;2022-08-01T10:12:13;0.90;;;0.77;;
19213;SDS011;9741;51.020;5.304;2022-08-01T10:14:42;1.77;;;0.93;;
19213;SDS011;9741;51.020;5.304;2022-08-01T10:17:12;0.60;;;0.60;;
19213;SDS011;9741;51.020;5.304;2022-08-01T10:19:41;0.90;;;0.60;;
19213;SDS011;9741;51.020;5.304;2022-08-01T10:22:11;2.10;;;0.75;;
19213;SDS011;9741;51.020;5.304;2022-08-01T10:24:43;2.28;;;0.88;;
19213;SDS011;9741;51.020;5.304;2022-08-01T10:27:13;0.80;;;0.80;;
19213;SDS011;9741;51.020;5.304;2022-08-01T10:29:43;0.60;;;0.60;;
19213;SDS011;9741;51.020;5.304;2022-08-01T10:32:16;0.70;;;0.70;;
19213;SDS011;9741;51.020;5.304;2022-08-01T10:34:44;4.15;;;1.00;;
19213;SDS011;9741;51.020;5.304;2022-08-01T10:37:11;0.50;;;0.50;;
19213;SDS011;9741;51.020;5.304;2022-08-01T10:39:41;0.70;;;0.70;;
19213;SDS011;9741;51.020;5.304;2022-08-01T10:42:09;1.05;;;0.98;;
19213;SDS011;9741;51.020;5.304;2022-08-01T10:44:39;0.55;;;0.47;;
19213;SDS011;9741;51.020;5.304;2022-08-01T10:47:13;0.77;;;0.77;;
19213;SDS011;9741;51.020;5.304;2022-08-01T10:49:45;0.60;;;0.57;;
19213;SDS011;9741;51.020;5.304;2022-08-01T10:52:16;0.75;;;0.60;;
19213;SDS011;9741;51.020;5.304;2022-08-01T10:54:45;0.80;;;0.68;;
19213;SDS011;9741;51.020;5.304;2022-08-01T10:57:12;1.95;;;0.80;;
19213;SDS011;9741;51.020;5.304;2022-08-01T11:02:27;0.77;;;0.77;;
19213;SDS011;9741;51.020;5.304;2022-08-01T11:04:58;0.82;;;0.80;;
19213;SDS011;9741;51.020;5.304;2022-08-01T11:07:37;1.13;;;0.90;;
19213;SDS011;9741;51.020;5.304;2022-08-01T11:10:16;1.15;;;0.80;;
19213;SDS011;9741;51.020;5.304;2022-08-01T11:12:51;1.63;;;0.68;;
19213;SDS011;9741;51.020;5.304;2022-08-01T11:15:20;0.63;;;0.60;;
19213;SDS011;9741;51.020;5.304;2022-08-01T11:17:52;1.15;;;1.08;;
19213;SDS011;9741;51.020;5.304;2022-08-01T11:20:21;1.33;;;1.17;;
19213;SDS011;9741;51.020;5.304;2022-08-01T11:31:40;0.60;;;0.60;;
19213;SDS011;9741;51.020;5.304;2022-08-01T11:34:08;0.50;;;0.50;;
19213;SDS011;9741;51.020;5.304;2022-08-01T11:36:36;0.70;;;0.50;;
19213;SDS011;9741;51.020;5.304;2022-08-01T11:39:10;1.13;;;0.60;;
19213;SDS011;9741;51.020;5.304;2022-08-01T11:41:47;0.70;;;0.70;;
19213;SDS011;9741;51.020;5.304;2022-08-01T11:44:16;0.60;;;0.60;;
19213;SDS011;9741;51.020;5.304;2022-08-01T11:46:47;0.60;;;0.60;;
19213;SDS011;9741;51.020;5.304;2022-08-01T11:49:24;0.63;;;0.63;;
19213;SDS011;9741;51.020;5.304;2022-08-01T11:51:56;0.60;;;0.52;;
19213;SDS011;9741;51.020;5.304;2022-08-01T11:54:26;0.40;;;0.40;;
19213;SDS011;9741;51.020;5.304;2022-08-01T11:56:55;0.60;;;0.60;;
19213;SDS011;9741;51.020;5.304;2022-08-01T11:59:24;0.73;;;0.40;;
19213;SDS011;9741;51.020;5.304;2022-08-01T12:01:53;0.68;;;0.60;;
19213;SDS011;9741;51.020;5.304;2022-08-01T12:04:20;0.82;;;0.40;;
19213;SDS011;9741;51.020;5.304;2022-08-01T12:06:48;0.93;;;0.85;;
19213;SDS011;9741;51.020;5.304;2022-08-01T12:09:17;0.85;;;0.60;;
19213;SDS011;9741;51.020;5.304;2022-08-01T12:11:45;0.60;;;0.60;;
19213;SDS011;9741;51.020;5.304;2022-08-01T12:14:19;0.77;;;0.70;;
19213;SDS011;9741;51.020;5.304;2022-08-01T12:16:54;0.65;;;0.65;;
19213;SDS011;9741;51.020;5.304;2022-08-01T12:19:23;0.22;;;0.22;;
19213;SDS011;9741;51.020;5.304;2022-08-01T12:22:07;0.40;;;0.40;;
19213;SDS011;9741;51.020;5.304;2022-08-01T12:24:35;0.40;;;0.40;;
19213;SDS011;9741;51.020;5.304;2022-08-01T12:27:03;0.63;;;0.55;;
19213;SDS011;9741;51.020;5.304;2022-08-01T12:29:31;0.80;;;0.50;;
19213;SDS011;9741;51.020;5.304;2022-08-01T12:32:03;1.00;;;0.60;;
19213;SDS011;9741;51.020;5.304;2022-08-01T12:34:40;0.40;;;0.40;;
19213;SDS011;9741;51.020;5.304;2022-08-01T12:37:08;0.40;;;0.40;;
19213;SDS011;9741;51.020;5.304;2022-08-01T12:39:35;0.73;;;0.60;;
19213;SDS011;9741;51.020;5.304;2022-08-01T12:42:05;0.35;;;0.35;;
19213;SDS011;9741;51.020;5.304;2022-08-01T12:44:36;0.65;;;0.63;;
19213;SDS011;9741;51.020;5.304;2022-08-01T12:47:06;0.68;;;0.50;;
19213;SDS011;9741;51.020;5.304;2022-08-01T12:49:35;1.88;;;0.65;;
19213;SDS011;9741;51.020;5.304;2022-08-01T12:52:03;0.52;;;0.47;;
19213;SDS011;9741;51.020;5.304;2022-08-01T12:57:27;0.65;;;0.65;;
19213;SDS011;9741;51.020;5.304;2022-08-01T13:00:04;0.35;;;0.35;;
19213;SDS011;9741;51.020;5.304;2022-08-01T13:02:37;0.73;;;0.70;;
19213;SDS011;9741;51.020;5.304;2022-08-01T13:05:05;1.05;;;0.40;;
19213;SDS011;9741;51.020;5.304;2022-08-01T13:07:41;0.40;;;0.40;;
19213;SDS011;9741;51.020;5.304;2022-08-01T13:10:11;2.38;;;1.10;;
19213;SDS011;9741;51.020;5.304;2022-08-01T13:12:40;0.73;;;0.68;;
19213;SDS011;9741;51.020;5.304;2022-08-01T13:15:25;0.50;;;0.50;;
19213;SDS011;9741;51.020;5.304;2022-08-01T13:17:57;0.40;;;0.40;;
19213;SDS011;9741;51.020;5.304;2022-08-01T13:20:29;1.27;;;0.70;;
19213;SDS011;9741;51.020;5.304;2022-08-01T13:23:13;1.63;;;0.57;;
19213;SDS011;9741;51.020;5.304;2022-08-01T13:25:51;1.00;;;0.68;;
19213;SDS011;9741;51.020;5.304;2022-08-01T13:28:21;1.15;;;0.70;;
19213;SDS011;9741;51.020;5.304;2022-08-01T13:30:50;0.63;;;0.50;;
19213;SDS011;9741;51.020;5.304;2022-08-01T13:33:20;0.60;;;0.60;;
19213;SDS011;9741;51.020;5.304;2022-08-01T13:35:48;0.60;;;0.60;;
19213;SDS011;9741;51.020;5.304;2022-08-01T13:38:16;2.25;;;0.60;;
19213;SDS011;9741;51.020;5.304;2022-08-01T13:40:43;0.30;;;0.30;;
19213;SDS011;9741;51.020;5.304;2022-08-01T13:43:11;0.40;;;0.40;;
19213;SDS011;9741;51.020;5.304;2022-08-01T13:45:39;0.70;;;0.60;;
19213;SDS011;9741;51.020;5.304;2022-08-01T13:48:06;3.00;;;0.55;;
19213;SDS011;9741;51.020;5.304;2022-08-01T13:50:35;0.45;;;0.45;;
19213;SDS011;9741;51.020;5.304;2022-08-01T13:53:02;0.45;;;0.35;;
19213;SDS011;9741;51.020;5.304;2022-08-01T13:55:29;0.22;;;0.22;;
19213;SDS011;9741;51.020;5.304;2022-08-01T13:57:56;0.45;;;0.45;;
19213;SDS011;9741;51.020;5.304;2022-08-01T14:00:24;0.68;;;0.52;;
19213;SDS011;9741;51.020;5.304;2022-08-01T14:02:51;1.15;;;0.70;;
19213;SDS011;9741;51.020;5.304;2022-08-01T14:05:19;0.30;;;0.30;;
19213;SDS011;9741;51.020;5.304;2022-08-01T14:07:48;0.60;;;0.52;;
19213;SDS011;9741;51.020;5.304;2022-08-01T14:10:16;0.50;;;0.50;;
19213;SDS011;9741;51.020;5.304;2022-08-01T14:12:43;1.15;;;0.52;;
19213;SDS011;9741;51.020;5.304;2022-08-01T14:15:10;0.50;;;0.50;;
19213;SDS011;9741;51.020;5.304;2022-08-01T14:17:37;1.30;;;0.73;;
19213;SDS011;9741;51.020;5.304;2022-08-01T14:20:04;0.40;;;0.40;;
19213;SDS011;9741;51.020;5.304;2022-08-01T14:22:32;0.35;;;0.35;;
19213;SDS011;9741;51.020;5.304;2022-08-01T14:25:00;3.60;;;0.65;;
19213;SDS011;9741;51.020;5.304;2022-08-01T14:27:28;0.40;;;0.40;;
19213;SDS011;9741;51.020;5.304;2022-08-01T14:29:55;0.82;;;0.68;;
19213;SDS011;9741;51.020;5.304;2022-08-01T14:32:23;0.50;;;0.50;;
19213;SDS011;9741;51.020;5.304;2022-08-01T14:34:50;0.52;;;0.52;;
19213;SDS011;9741;51.020;5.304;2022-08-01T14:37:17;0.38;;;0.38;;
19213;SDS011;9741;51.020;5.304;2022-08-01T14:39:44;0.50;;;0.50;;
19213;SDS011;9741;51.020;5.304;2022-08-01T14:42:12;0.93;;;0.57;;
19213;SDS011;9741;51.020;5.304;2022-08-01T14:44:39;0.80;;;0.63;;
19213;SDS011;9741;51.020;5.304;2022-08-01T14:47:06;0.50;;;0.50;;
19213;SDS011;9741;51.020;5.304;2022-08-01T14:49:33;0.50;;;0.50;;
19213;SDS011;9741;51.020;5.304;2022-08-01T14:52:01;1.65;;;0.63;;
19213;SDS011;9741;51.020;5.304;2022-08-01T14:54:28;0.85;;;0.47;;
19213;SDS011;9741;51.020;5.304;2022-08-01T14:56:55;1.27;;;0.70;;
19213;SDS011;9741;51.020;5.304;2022-08-01T14:59:23;0.68;;;0.68;;
19213;SDS011;9741;51.020;5.304;2022-08-01T15:01:51;0.47;;;0.47;;
19213;SDS011;9741;51.020;5.304;2022-08-01T15:04:18;0.43;;;0.43;;
19213;SDS011;9741;51.020;5.304;2022-08-01T15:06:45;1.15;;;0.43;;
19213;SDS011;9741;51.020;5.304;2022-08-01T15:09:13;3.53;;;0.57;;
19213;SDS011;9741;51.020;5.304;2022-08-01T15:11:41;0.80;;;0.63;;
19213;SDS011;9741;51.020;5.304;2022-08-01T15:14:10;2.83;;;0.68;;
19213;SDS011;9741;51.020;5.304;2022-08-01T15:16:56;0.90;;;0.65;;
19213;SDS011;9741;51.020;5.304;2022-08-01T15:19:23;0.38;;;0.38;;
19213;SDS011;9741;51.020;5.304;2022-08-01T15:21:50;0.60;;;0.55;;
19213;SDS011;9741;51.020;5.304;2022-08-01T15:24:17;1.00;;;0.85;;
19213;SDS011;9741;51.020;5.304;2022-08-01T15:26:44;0.55;;;0.43;;
19213;SDS011;9741;51.020;5.304;2022-08-01T15:29:11;1.38;;;0.98;;